Villa Clarita, Puerto Rico
Current Conditions -  °F | °C
As of 5:53 AM on Saturday 20 Dec 2014 (Local Time) from TJNR Reporting Station
Few Clouds Few Clouds  
Wind Chill: 24°   Ceiling: Unl
Heat Index: 24°   Visibility: 10mi
Dew Point: 21°   Wind: 3mph
Humidity: 79%   Direction: 80°E
Pressure: 30"   Gusts: NA
Location:  18.3304°N, 65.6573°W
Report Text: TJNR 200953Z AUTO 08003KT 10SM FEW047 24/21 A3000 RMK AO2 SLP158 T02440206 $
Loading
Personal Weather Stations






























Interactive Weather Map New forecast layout! Learn more

10-Day Weather Forecast

Advertisements
Track Severe Weather on mobile